createdAt,value
2023-04-22T00:01:10.329Z,221.30
2023-04-22T06:14:50.626Z,231.45
2023-04-22T06:18:54.967Z,232.20
2023-04-22T06:22:58.087Z,230.55
2023-04-22T06:27:01.081Z,229.75
2023-04-22T06:35:10.209Z,228.38
2023-04-22T06:39:13.232Z,220.95
2023-04-22T06:43:16.220Z,226.80
2023-04-22T06:47:20.403Z,225.43
2023-04-22T06:51:24.765Z,225.05
2023-04-22T06:55:27.734Z,223.90
2023-04-22T06:59:30.745Z,221.95
2023-04-22T07:03:33.986Z,223.00
2023-04-22T07:07:38.618Z,222.05
2023-04-22T07:11:41.679Z,221.20
2023-04-22T07:15:47.241Z,218.30
2023-04-22T07:19:50.284Z,216.70
2023-04-22T07:23:54.871Z,216.70
2023-04-22T07:27:58.087Z,220.00
2023-04-22T07:32:01.111Z,218.60
2023-04-22T07:36:04.282Z,217.90
2023-04-22T07:40:12.111Z,218.13
2023-04-22T07:44:18.362Z,214.45
2023-04-22T07:48:21.387Z,216.40
2023-04-22T07:52:24.475Z,217.65
2023-04-22T07:56:30.964Z,213.70
2023-04-22T08:00:34.485Z,210.70
2023-04-22T08:04:37.559Z,215.10
2023-04-22T08:08:40.614Z,215.55
2023-04-22T08:12:45.222Z,215.87
2023-04-22T08:16:48.165Z,214.90
2023-04-22T08:20:51.749Z,215.30
2023-04-22T08:24:54.740Z,216.50
2023-04-22T08:28:59.098Z,218.40
2023-04-22T08:33:02.162Z,217.40
2023-04-22T08:37:05.292Z,213.90
2023-04-22T08:41:08.604Z,215.55
2023-04-22T08:45:14.926Z,212.70
2023-04-22T08:49:18.252Z,213.25
2023-04-22T08:53:24.343Z,211.90
2023-04-22T08:57:28.399Z,215.90
2023-04-22T09:01:34.173Z,216.65
2023-04-22T09:05:40.795Z,215.93
2023-04-22T09:09:45.987Z,214.60
2023-04-22T09:13:50.805Z,209.60
2023-04-22T09:17:55.426Z,211.68
2023-04-22T09:21:59.555Z,227.50
2023-04-22T09:26:03.234Z,219.88
2023-04-22T09:30:10.105Z,218.27
2023-04-22T09:34:15.391Z,217.37
2023-04-22T09:38:18.467Z,213.98
2023-04-22T09:42:22.910Z,216.40
2023-04-22T09:46:28.671Z,216.98
2023-04-22T09:50:33.464Z,216.70
2023-04-22T09:54:38.742Z,215.60
2023-04-22T09:58:44.113Z,217.00
2023-04-22T10:02:47.173Z,215.30
2023-04-22T10:06:51.844Z,216.20
2023-04-22T10:10:57.285Z,215.40
2023-04-22T10:15:00.449Z,215.30
2023-04-22T10:19:07.634Z,216.30
2023-04-22T10:23:19.178Z,216.65
2023-04-22T10:27:23.262Z,239.05
2023-04-22T10:31:26.825Z,239.50
2023-04-22T10:35:30.359Z,240.00
2023-04-22T10:39:34.853Z,242.10
2023-04-22T10:43:45.450Z,240.85
2023-04-22T10:47:48.620Z,240.30
2023-04-22T10:51:53.074Z,241.77
2023-04-22T10:55:57.514Z,243.50
2023-04-22T11:00:01.280Z,246.10
2023-04-22T11:04:23.421Z,245.60
2023-04-22T11:08:30.010Z,248.50
2023-04-22T11:12:46.627Z,250.10
2023-04-22T11:16:49.686Z,250.75
2023-04-22T11:20:53.824Z,246.70
2023-04-22T11:24:57.180Z,248.20
2023-04-22T11:29:02.583Z,248.80
2023-04-22T11:33:18.881Z,250.67
2023-04-22T11:37:23.477Z,251.90
2023-04-22T11:41:27.035Z,252.75
2023-04-22T11:45:36.402Z,250.70
2023-04-22T11:49:40.352Z,247.25
2023-04-22T11:53:52.523Z,249.50
2023-04-22T11:57:57.830Z,249.13
2023-04-22T12:06:09.422Z,251.45
2023-04-22T12:10:13.136Z,251.05
2023-04-22T12:14:16.762Z,14.10
2023-04-22T12:18:39.280Z,7.10
2023-04-22T12:22:42.531Z,9.50
2023-04-22T12:26:46.017Z,8.35
2023-04-22T12:30:51.185Z,8.10
2023-04-22T12:34:56.294Z,7.90
2023-04-22T12:38:59.373Z,8.10
2023-04-22T12:43:06.147Z,6.40
2023-04-22T12:47:09.922Z,7.63
2023-04-22T12:51:14.285Z,7.00
2023-04-22T12:55:18.008Z,7.80
2023-04-22T12:59:32.312Z,7.80
2023-04-22T13:03:35.422Z,9.97
2023-04-22T13:07:40.792Z,8.70
2023-04-22T13:11:54.491Z,9.13
2023-04-22T13:15:58.319Z,7.10
2023-04-22T13:20:01.531Z,9.05
2023-04-22T13:24:06.329Z,9.00
2023-04-22T13:28:11.578Z,6.40
2023-04-22T13:32:14.770Z,15.10
2023-04-22T13:36:17.775Z,9.43
2023-04-22T13:40:22.313Z,10.13
2023-04-22T13:44:29.885Z,8.93
2023-04-22T13:48:32.893Z,11.75
2023-04-22T13:52:36.800Z,8.30
2023-04-22T13:56:41.245Z,7.80
2023-04-22T14:00:44.308Z,8.25
2023-04-22T14:04:47.388Z,11.20
2023-04-22T14:08:50.435Z,8.10
2023-04-22T14:12:54.825Z,5.50
2023-04-22T14:16:58.111Z,8.40
2023-04-22T14:21:02.061Z,10.55
2023-04-22T14:25:05.491Z,8.17
2023-04-22T14:29:10.281Z,7.10
2023-04-22T14:33:13.545Z,7.80
2023-04-22T14:37:47.840Z,7.70
2023-04-22T14:41:50.957Z,4.85
2023-04-22T14:45:55.686Z,7.40
2023-04-22T14:49:58.904Z,7.85
2023-04-22T14:54:02.013Z,7.25
2023-04-22T14:58:06.979Z,14.67
2023-04-22T15:02:15.815Z,13.70
2023-04-22T15:06:27.637Z,14.90
2023-04-22T15:10:30.666Z,14.55
2023-04-22T15:14:47.549Z,15.95
2023-04-22T15:18:55.623Z,15.10
2023-04-22T15:22:58.748Z,16.80
2023-04-22T15:27:02.965Z,14.85
2023-04-22T15:31:06.248Z,17.70
2023-04-22T15:35:11.128Z,15.50
2023-04-22T15:39:14.129Z,17.10
2023-04-22T15:43:17.241Z,15.20
2023-04-22T15:47:21.399Z,16.00
2023-04-22T15:51:25.827Z,23.60
2023-04-22T15:55:28.838Z,14.70
2023-04-22T15:59:43.067Z,20.42
2023-04-22T16:03:46.357Z,17.75
2023-04-22T16:07:50.955Z,14.00
2023-04-22T16:11:55.978Z,156.90
2023-04-22T16:16:04.086Z,248.25
2023-04-22T16:20:08.855Z,247.60
2023-04-22T16:24:14.626Z,246.85
2023-04-22T16:28:17.762Z,250.15
2023-04-22T16:32:20.837Z,255.00
2023-04-22T16:36:26.512Z,252.40
2023-04-22T16:40:31.103Z,253.35
2023-04-22T16:44:34.337Z,253.98
2023-04-22T16:48:40.711Z,252.30
2023-04-22T16:52:59.173Z,249.85
2023-04-22T16:57:33.561Z,245.60
2023-04-22T17:01:38.346Z,239.00
2023-04-22T17:05:41.471Z,233.90
2023-04-22T17:09:50.272Z,234.30
2023-04-22T17:13:54.599Z,233.90
2023-04-22T17:17:57.752Z,233.60
2023-04-22T17:22:01.853Z,232.25
2023-04-22T17:26:05.121Z,233.00
2023-04-22T17:30:10.625Z,244.87
2023-04-22T17:34:13.633Z,225.98
2023-04-22T17:38:16.675Z,220.50
2023-04-22T17:42:20.476Z,221.60
2023-04-22T17:46:24.857Z,221.80
2023-04-22T17:50:27.928Z,219.95
2023-04-22T17:54:31.060Z,218.35
2023-04-22T17:58:38.216Z,218.77
2023-04-22T18:02:43.161Z,217.75
2023-04-22T18:06:46.422Z,219.60
2023-04-22T18:10:50.614Z,216.80
2023-04-22T18:14:53.656Z,213.53
2023-04-22T18:18:59.122Z,212.68
2023-04-22T18:23:02.168Z,216.20
2023-04-22T18:27:05.282Z,217.95
2023-04-22T18:31:08.982Z,213.25
2023-04-22T18:35:13.340Z,212.75
2023-04-22T18:39:17.866Z,209.85
2023-04-22T18:43:20.925Z,209.88
2023-04-22T18:47:24.060Z,208.20
2023-04-22T18:51:29.870Z,209.30
2023-04-22T18:55:32.886Z,206.05
2023-04-22T18:59:35.990Z,208.73
2023-04-22T19:03:39.854Z,206.50
2023-04-22T19:07:45.277Z,207.83
2023-04-22T19:11:48.462Z,206.70
2023-04-22T19:15:51.566Z,206.33
2023-04-22T19:19:54.632Z,208.50
2023-04-22T19:23:59.026Z,208.45
2023-04-22T19:28:02.070Z,207.80
2023-04-22T19:32:05.267Z,206.40
2023-04-22T19:36:08.494Z,203.60
2023-04-22T19:40:17.299Z,204.95
2023-04-22T19:44:21.606Z,205.10
2023-04-22T19:48:25.132Z,200.50
2023-04-22T19:52:29.664Z,198.80
2023-04-22T19:56:34.684Z,211.40
2023-04-22T20:00:38.948Z,219.50
2023-04-22T20:04:42.619Z,217.20
2023-04-22T20:08:46.184Z,217.55
2023-04-22T20:12:51.380Z,217.30
2023-04-22T20:16:55.417Z,220.20
2023-04-22T20:20:59.957Z,219.00
2023-04-22T20:25:07.749Z,218.65
2023-04-22T20:29:14.447Z,217.20
2023-04-22T20:33:18.427Z,218.50
2023-04-22T20:37:23.220Z,219.90
2023-04-22T20:41:27.550Z,220.25
2023-04-22T20:45:32.163Z,219.20
2023-04-22T20:49:36.650Z,217.23
2023-04-22T20:53:39.672Z,217.45
2023-04-22T20:57:42.931Z,216.90
2023-04-22T21:01:48.357Z,218.70
2023-04-22T21:05:52.390Z,218.15
2023-04-22T21:09:55.741Z,217.45
2023-04-22T21:13:59.969Z,217.95
2023-04-22T21:18:07.584Z,218.10
2023-04-22T21:22:11.485Z,213.70
2023-04-22T21:26:16.283Z,210.25
2023-04-22T21:30:21.916Z,211.10
2023-04-22T21:34:26.319Z,209.40
2023-04-22T21:38:30.180Z,205.70
2023-04-22T21:42:33.195Z,203.10
2023-04-22T21:46:40.253Z,202.83
2023-04-22T21:50:44.631Z,201.77
2023-04-22T21:54:47.701Z,200.53
2023-04-22T21:58:50.698Z,194.40
2023-04-22T22:02:53.958Z,192.57
2023-04-22T22:06:58.476Z,198.13
2023-04-22T22:11:04.679Z,198.70
2023-04-22T22:15:09.257Z,200.47
2023-04-22T22:19:12.528Z,200.35
2023-04-22T22:23:17.126Z,200.95
2023-04-22T22:27:20.202Z,200.70
2023-04-22T22:31:23.204Z,203.60
2023-04-22T22:35:26.744Z,202.33
2023-04-22T22:39:31.141Z,199.53
2023-04-22T22:43:34.171Z,200.70
2023-04-22T22:47:37.241Z,201.55
2023-04-22T22:51:40.281Z,201.55
2023-04-22T22:55:44.649Z,200.25
2023-04-22T22:59:47.696Z,198.30
2023-04-22T23:03:51.025Z,201.55
2023-04-22T23:07:54.134Z,201.60
2023-04-22T23:11:58.550Z,200.83
2023-04-22T23:16:01.770Z,200.70
2023-04-22T23:20:06.783Z,200.47
2023-04-22T23:24:10.851Z,200.80
2023-04-22T23:28:16.112Z,200.40
2023-04-22T23:32:21.335Z,200.03
2023-04-22T23:36:25.769Z,199.25
2023-04-22T23:40:28.786Z,197.60
2023-04-22T23:44:33.141Z,195.00
2023-04-22T23:48:36.178Z,199.10
2023-04-22T23:52:41.283Z,200.90
2023-04-22T23:56:45.028Z,200.45
